Time;durP1;ratioP1;P1;durP2;ratioP2;P2;SDS_P1;SDS_P2;PMS_P1;PMS_P2;Temp;Humidity;BMP_temperature;BMP_pressure;BME280_temperature;BME280_humidity;BME280_pressure;Samples;Min_cycle;Max_cycle;Signal;HPM_P1;HPM_P2
2023/12/13 00:00:28;;;;;;;1.50;0.68;;;11.20;99.90;;;;;;5007128;28;20510;-81
2023/12/13 00:02:55;;;;;;;4.50;0.68;;;11.20;99.90;;;;;;5007085;28;20050;-83
2023/12/13 00:05:21;;;;;;;1.63;0.52;;;11.20;99.90;;;;;;5005863;28;20451;-82
2023/12/13 00:07:48;;;;;;;1.45;0.80;;;11.20;99.90;;;;;;5006508;28;20049;-83
2023/12/13 00:10:15;;;;;;;0.73;0.40;;;11.20;99.90;;;;;;5007014;28;20053;-82
2023/12/13 00:12:42;;;;;;;1.77;0.68;;;11.20;99.90;;;;;;5010834;28;20130;-83
2023/12/13 00:15:09;;;;;;;3.42;0.75;;;11.20;99.90;;;;;;5006904;28;20046;-82
2023/12/13 00:17:36;;;;;;;3.42;0.80;;;11.20;99.90;;;;;;5024849;28;20046;-83
2023/12/13 00:20:05;;;;;;;4.25;0.95;;;11.20;99.90;;;;;;5010003;28;20054;-82
2023/12/13 00:22:32;;;;;;;1.17;0.80;;;11.10;99.90;;;;;;5013672;28;20061;-80
2023/12/13 00:24:59;;;;;;;2.70;0.90;;;11.10;99.90;;;;;;5010459;28;20050;-83
2023/12/13 00:27:26;;;;;;;4.25;0.80;;;11.00;99.90;;;;;;5007260;28;20054;-82
2023/12/13 00:29:53;;;;;;;2.58;0.93;;;11.10;99.90;;;;;;5014015;28;20045;-82
2023/12/13 00:32:20;;;;;;;3.38;0.70;;;11.00;99.90;;;;;;5006277;28;20043;-83
2023/12/13 00:34:47;;;;;;;5.97;1.40;;;11.10;99.90;;;;;;5012043;28;20077;-81
2023/12/13 00:37:14;;;;;;;3.35;0.98;;;11.10;99.90;;;;;;5011453;28;20494;-82
2023/12/13 00:39:40;;;;;;;7.05;1.67;;;11.10;99.90;;;;;;5010584;28;20045;-83
2023/12/13 00:42:07;;;;;;;1.33;0.90;;;11.10;99.90;;;;;;5008681;28;20486;-83
2023/12/13 00:44:34;;;;;;;1.42;0.77;;;11.10;99.90;;;;;;5011808;28;20477;-83
2023/12/13 00:47:01;;;;;;;2.22;0.95;;;11.10;99.90;;;;;;5020476;28;20076;-80
2023/12/13 00:49:27;;;;;;;4.00;0.90;;;11.10;99.90;;;;;;5019239;28;20050;-81
2023/12/13 00:51:54;;;;;;;6.05;0.90;;;11.10;99.90;;;;;;5021575;28;20074;-83
2023/12/13 00:54:21;;;;;;;1.90;1.05;;;11.10;99.90;;;;;;5009717;28;20051;-81
2023/12/13 00:56:48;;;;;;;4.57;0.70;;;11.10;99.90;;;;;;5009231;28;20425;-82
2023/12/13 00:59:14;;;;;;;3.45;0.80;;;11.10;99.90;;;;;;5005596;28;20530;-83
2023/12/13 01:01:46;;;;;;;1.67;0.77;;;11.10;99.90;;;;;;5004105;28;20057;-82
2023/12/13 01:04:13;;;;;;;1.60;0.60;;;11.00;99.90;;;;;;5004764;28;20047;-81
2023/12/13 01:06:40;;;;;;;2.63;0.82;;;11.00;99.90;;;;;;5012346;28;20104;-81
2023/12/13 01:09:08;;;;;;;2.53;0.80;;;11.00;99.90;;;;;;5004321;28;20097;-81
2023/12/13 01:11:34;;;;;;;4.80;0.85;;;11.00;99.90;;;;;;5008516;28;20046;-82
2023/12/13 01:14:06;;;;;;;3.72;0.88;;;11.00;99.90;;;;;;5012211;28;20049;-82
2023/12/13 01:16:33;;;;;;;2.97;0.82;;;11.10;99.90;;;;;;5008253;28;20058;-83
2023/12/13 01:19:00;;;;;;;5.25;0.88;;;11.10;99.90;;;;;;5006594;28;20144;-81
2023/12/13 01:21:28;;;;;;;1.67;0.68;;;11.10;99.90;;;;;;5007566;28;20407;-81
2023/12/13 01:23:55;;;;;;;6.57;0.98;;;11.10;99.90;;;;;;5012150;28;20117;-82
2023/12/13 01:26:22;;;;;;;4.90;0.95;;;11.10;99.90;;;;;;5004839;28;20070;-81
2023/12/13 01:28:49;;;;;;;2.08;0.60;;;11.10;99.90;;;;;;5008841;28;20520;-81
2023/12/13 01:31:17;;;;;;;1.50;0.60;;;11.00;99.90;;;;;;5009147;28;20110;-81
2023/12/13 01:33:44;;;;;;;2.20;0.70;;;11.10;99.90;;;;;;5006355;28;20096;-82
2023/12/13 01:36:11;;;;;;;2.40;0.85;;;11.10;99.90;;;;;;5013566;28;20059;-82
2023/12/13 01:38:38;;;;;;;2.20;0.60;;;11.10;99.90;;;;;;5015532;28;20057;-82
2023/12/13 01:41:05;;;;;;;2.08;0.57;;;11.10;99.90;;;;;;5009978;28;20050;-82
2023/12/13 01:43:43;;;;;;;2.92;0.70;;;11.10;99.90;;;;;;5015185;28;20345;-82
2023/12/13 01:46:12;;;;;;;6.68;0.98;;;11.10;99.90;;;;;;5012261;28;20050;-83
2023/12/13 01:48:39;;;;;;;5.90;0.80;;;11.10;99.90;;;;;;5030571;28;20054;-82
2023/12/13 01:51:07;;;;;;;2.55;0.80;;;11.10;99.90;;;;;;5010699;28;20107;-81
2023/12/13 01:53:35;;;;;;;2.20;0.90;;;11.10;99.90;;;;;;5014932;28;20116;-82
2023/12/13 01:56:04;;;;;;;3.20;0.68;;;11.10;99.90;;;;;;5015955;28;20050;-82
2023/12/13 01:58:32;;;;;;;0.85;0.50;;;11.10;99.90;;;;;;5009744;28;20097;-82
2023/12/13 02:00:59;;;;;;;1.40;0.50;;;11.10;99.90;;;;;;5012581;28;20084;-83
2023/12/13 02:03:26;;;;;;;3.67;0.60;;;11.10;99.90;;;;;;5009021;28;20054;-82
2023/12/13 02:05:53;;;;;;;1.90;0.85;;;11.10;99.90;;;;;;5012108;28;20050;-82
2023/12/13 02:08:21;;;;;;;2.60;0.80;;;11.10;99.90;;;;;;5007865;28;20470;-83
2023/12/13 02:10:49;;;;;;;1.27;0.70;;;11.20;99.90;;;;;;5009869;28;20050;-83
2023/12/13 02:13:16;;;;;;;0.80;0.60;;;11.20;99.90;;;;;;5012294;28;20513;-81
2023/12/13 02:15:44;;;;;;;3.08;0.75;;;11.20;99.90;;;;;;5013476;28;20425;-83
2023/12/13 02:18:11;;;;;;;4.55;0.68;;;11.20;99.90;;;;;;5012748;28;20058;-82
2023/12/13 02:20:38;;;;;;;2.00;0.50;;;11.30;99.90;;;;;;5013340;28;20057;-82
2023/12/13 02:23:05;;;;;;;2.15;0.73;;;11.30;99.90;;;;;;5016290;28;20099;-81
2023/12/13 02:25:44;;;;;;;5.57;0.60;;;11.30;99.90;;;;;;5013411;28;20074;-82
2023/12/13 02:28:11;;;;;;;1.50;0.60;;;11.30;99.90;;;;;;5009304;28;20042;-82
2023/12/13 02:30:39;;;;;;;3.50;0.63;;;11.30;99.90;;;;;;5010287;28;20051;-82
2023/12/13 02:33:07;;;;;;;3.80;0.90;;;11.20;99.90;;;;;;5010800;28;20053;-81
2023/12/13 02:35:34;;;;;;;5.05;0.90;;;11.30;99.90;;;;;;5013306;28;20085;-81
2023/12/13 02:38:01;;;;;;;1.05;0.50;;;11.30;99.90;;;;;;5011759;28;20054;-83
2023/12/13 02:40:28;;;;;;;7.28;0.80;;;11.20;99.90;;;;;;5008059;28;20466;-83
2023/12/13 02:42:55;;;;;;;1.60;0.60;;;11.30;99.90;;;;;;5015797;28;20049;-83
2023/12/13 02:45:21;;;;;;;2.88;0.95;;;11.30;99.90;;;;;;5006678;28;20046;-82
2023/12/13 02:47:52;;;;;;;3.90;0.70;;;11.20;99.90;;;;;;5010510;28;20101;-83
2023/12/13 02:50:19;;;;;;;4.65;0.98;;;11.20;99.90;;;;;;5006338;28;20046;-81
2023/12/13 02:52:46;;;;;;;4.43;0.95;;;11.20;99.90;;;;;;5012635;28;20045;-83
2023/12/13 02:55:13;;;;;;;2.05;0.50;;;11.20;99.90;;;;;;5009528;28;20104;-81
2023/12/13 02:57:40;;;;;;;2.38;0.60;;;11.20;99.90;;;;;;5010022;28;20046;-82
2023/12/13 03:00:08;;;;;;;1.42;0.55;;;11.20;99.90;;;;;;5018475;28;20058;-82
2023/12/13 03:02:35;;;;;;;2.97;0.60;;;11.20;99.90;;;;;;5027814;28;20046;-83
2023/12/13 03:05:03;;;;;;;1.83;0.80;;;11.20;99.90;;;;;;5033324;28;20046;-80
2023/12/13 03:07:30;;;;;;;1.27;0.55;;;11.20;99.90;;;;;;5027236;28;20042;-80
2023/12/13 03:09:58;;;;;;;3.10;0.63;;;11.20;99.90;;;;;;5029418;28;20472;-81
2023/12/13 03:12:24;;;;;;;2.00;0.85;;;11.30;99.90;;;;;;5023509;28;20030;-80
2023/12/13 03:14:51;;;;;;;3.55;0.80;;;11.30;99.90;;;;;;5028670;28;20061;-82
2023/12/13 03:17:18;;;;;;;1.38;0.50;;;11.30;99.90;;;;;;5025917;28;20038;-83
2023/12/13 03:19:45;;;;;;;6.07;0.95;;;11.30;99.90;;;;;;5034597;28;20037;-80
2023/12/13 03:22:11;;;;;;;0.85;0.52;;;11.30;99.90;;;;;;5031842;28;20038;-80
2023/12/13 03:24:39;;;;;;;2.15;0.52;;;11.30;99.90;;;;;;5024294;28;20046;-82
2023/12/13 03:27:06;;;;;;;4.47;0.93;;;11.30;99.90;;;;;;5034075;28;20053;-78
2023/12/13 03:29:33;;;;;;;2.83;0.88;;;11.20;99.90;;;;;;5026131;28;20073;-80
2023/12/13 03:32:00;;;;;;;4.57;1.10;;;11.20;99.90;;;;;;5025608;28;20426;-81
2023/12/13 03:34:26;;;;;;;1.33;0.73;;;11.20;99.90;;;;;;5026355;28;20056;-82
2023/12/13 03:36:53;;;;;;;2.47;0.60;;;11.20;99.90;;;;;;5028547;28;20054;-82
2023/12/13 03:39:20;;;;;;;3.53;0.80;;;11.20;99.90;;;;;;5030268;28;20093;-82
2023/12/13 03:41:46;;;;;;;2.88;0.80;;;11.20;99.90;;;;;;5033335;28;20066;-80
2023/12/13 03:44:13;;;;;;;2.25;0.70;;;11.20;99.90;;;;;;5028786;28;20045;-80
2023/12/13 03:46:40;;;;;;;4.70;0.93;;;11.20;99.90;;;;;;5028211;28;20053;-80
2023/12/13 03:49:08;;;;;;;4.45;0.88;;;11.20;99.90;;;;;;5027465;28;20088;-80
2023/12/13 03:51:35;;;;;;;3.42;1.00;;;11.20;99.90;;;;;;5026329;28;20086;-81
2023/12/13 03:54:02;;;;;;;4.28;0.70;;;11.20;99.90;;;;;;5021534;28;20049;-80
2023/12/13 03:56:30;;;;;;;4.97;0.70;;;11.20;99.90;;;;;;5039554;28;20078;-81
2023/12/13 03:58:57;;;;;;;3.10;0.93;;;11.10;99.90;;;;;;5024976;28;20060;-80
2023/12/13 04:01:23;;;;;;;4.60;1.08;;;11.10;99.90;;;;;;5029289;28;20046;-80
2023/12/13 04:03:50;;;;;;;6.40;0.93;;;11.10;99.90;;;;;;5027163;28;20022;-80
2023/12/13 04:06:17;;;;;;;3.53;0.85;;;11.10;99.90;;;;;;5026193;28;20149;-78
2023/12/13 04:08:44;;;;;;;4.10;0.68;;;11.10;99.90;;;;;;5025439;28;20025;-79
2023/12/13 04:11:11;;;;;;;1.90;0.63;;;11.10;99.90;;;;;;5028191;28;20065;-81
2023/12/13 04:13:38;;;;;;;2.45;0.93;;;11.10;99.90;;;;;;5032901;28;20042;-80
2023/12/13 04:16:05;;;;;;;4.82;1.13;;;11.10;99.90;;;;;;5029993;28;20041;-82
2023/12/13 04:18:32;;;;;;;1.90;0.88;;;11.10;99.90;;;;;;5026777;28;20049;-80
2023/12/13 04:20:59;;;;;;;3.40;0.77;;;11.10;99.90;;;;;;5029152;28;20088;-82
2023/12/13 04:23:25;;;;;;;2.13;0.60;;;11.10;99.90;;;;;;5030085;28;20042;-81
2023/12/13 04:25:52;;;;;;;3.00;1.20;;;11.10;99.90;;;;;;5034991;28;20045;-82
2023/12/13 04:28:19;;;;;;;5.20;1.85;;;11.10;99.90;;;;;;5025800;28;20049;-80
2023/12/13 04:30:46;;;;;;;2.63;0.80;;;11.10;99.90;;;;;;5039246;28;20050;-79
2023/12/13 04:33:18;;;;;;;6.47;1.05;;;11.00;99.90;;;;;;5032657;28;20042;-82
2023/12/13 04:35:46;;;;;;;3.13;0.60;;;11.10;99.90;;;;;;5028086;28;20048;-82
2023/12/13 04:38:13;;;;;;;3.72;0.80;;;11.10;99.90;;;;;;5032904;28;20046;-79
2023/12/13 04:40:41;;;;;;;4.20;1.25;;;11.10;99.90;;;;;;5034850;28;20026;-82
2023/12/13 04:43:07;;;;;;;5.25;0.88;;;11.10;99.90;;;;;;5032437;28;20153;-81
2023/12/13 04:45:34;;;;;;;5.25;1.15;;;11.10;99.90;;;;;;5027913;28;20072;-82
2023/12/13 04:48:01;;;;;;;3.70;0.88;;;11.10;99.90;;;;;;5027321;28;20046;-81
2023/12/13 04:50:28;;;;;;;2.30;0.90;;;11.10;99.90;;;;;;5027928;28;20038;-80
2023/12/13 04:52:55;;;;;;;3.42;0.80;;;11.00;99.90;;;;;;5026789;28;20094;-81
2023/12/13 04:55:21;;;;;;;2.45;0.80;;;11.00;99.90;;;;;;5029159;28;20103;-80
2023/12/13 04:57:48;;;;;;;2.50;0.80;;;11.00;99.90;;;;;;5030208;28;20030;-80
2023/12/13 05:00:15;;;;;;;3.30;0.63;;;11.00;99.90;;;;;;5028634;28;20046;-81
2023/12/13 05:02:42;;;;;;;4.88;0.90;;;11.00;99.90;;;;;;5024979;28;20036;-81
2023/12/13 05:05:09;;;;;;;2.72;0.90;;;11.00;99.90;;;;;;5029753;28;20146;-82
2023/12/13 05:07:36;;;;;;;3.80;0.80;;;11.00;99.90;;;;;;5025704;28;20048;-81
2023/12/13 05:10:04;;;;;;;5.53;1.17;;;11.00;99.90;;;;;;5031711;28;20042;-80
2023/12/13 05:12:30;;;;;;;1.45;0.57;;;11.00;99.90;;;;;;5029702;28;20057;-80
2023/12/13 05:14:57;;;;;;;3.75;0.68;;;11.00;99.90;;;;;;5036279;28;20084;-80
2023/12/13 05:17:24;;;;;;;4.53;0.93;;;10.90;99.90;;;;;;5035186;28;20033;-80
2023/12/13 05:19:51;;;;;;;3.50;0.63;;;10.90;99.90;;;;;;5027264;28;20055;-80
2023/12/13 05:22:21;;;;;;;2.20;0.73;;;10.90;99.90;;;;;;5028867;28;20029;-80
2023/12/13 05:24:48;;;;;;;2.17;0.60;;;10.80;99.90;;;;;;5027384;28;20062;-80
2023/12/13 05:27:15;;;;;;;2.22;0.52;;;10.80;99.90;;;;;;5031980;28;20108;-80
2023/12/13 05:29:43;;;;;;;2.92;0.60;;;10.80;99.90;;;;;;5024068;28;20429;-80
2023/12/13 05:32:09;;;;;;;3.75;0.55;;;10.80;99.90;;;;;;5026826;28;20038;-80
2023/12/13 05:34:37;;;;;;;5.72;0.70;;;10.80;99.90;;;;;;5025650;28;20046;-82
2023/12/13 05:37:05;;;;;;;2.97;0.60;;;10.80;99.90;;;;;;5033280;28;20046;-81
2023/12/13 05:39:32;;;;;;;2.92;0.68;;;10.80;99.90;;;;;;5022770;28;20049;-81
2023/12/13 05:41:59;;;;;;;1.83;0.73;;;10.80;99.90;;;;;;5030085;28;20061;-79
2023/12/13 05:44:27;;;;;;;2.13;0.90;;;10.80;99.90;;;;;;5034549;28;20099;-84
2023/12/13 05:46:54;;;;;;;1.48;0.80;;;10.80;99.90;;;;;;5026311;28;20568;-82
2023/12/13 05:49:21;;;;;;;2.58;0.70;;;10.80;99.90;;;;;;5026151;28;20050;-82
2023/12/13 05:51:48;;;;;;;4.00;0.90;;;10.80;99.90;;;;;;5048301;28;20054;-80
2023/12/13 05:54:15;;;;;;;3.17;0.80;;;10.80;99.90;;;;;;5027513;28;20041;-81
2023/12/13 05:56:42;;;;;;;1.50;0.70;;;10.80;99.90;;;;;;5027566;28;20069;-80
2023/12/13 05:59:10;;;;;;;1.85;0.70;;;10.80;99.90;;;;;;5025640;28;20085;-80
2023/12/13 06:01:37;;;;;;;2.63;0.80;;;10.80;99.90;;;;;;5025488;28;20498;-81
2023/12/13 06:04:04;;;;;;;4.43;0.80;;;10.80;99.90;;;;;;5027235;28;20026;-79
2023/12/13 06:06:31;;;;;;;5.03;0.82;;;10.80;99.90;;;;;;5026618;28;20696;-82
2023/12/13 06:08:58;;;;;;;0.98;0.50;;;10.80;99.90;;;;;;5028881;28;20046;-78
2023/12/13 06:11:25;;;;;;;3.30;0.80;;;10.80;99.90;;;;;;5033371;28;20041;-80
2023/12/13 06:13:52;;;;;;;2.30;0.70;;;10.80;99.90;;;;;;5030768;28;20131;-81
2023/12/13 06:16:18;;;;;;;2.80;0.55;;;10.80;99.90;;;;;;5017283;28;20069;-80
2023/12/13 06:18:45;;;;;;;2.97;0.80;;;10.80;99.90;;;;;;5020131;28;20045;-80
2023/12/13 06:21:12;;;;;;;5.90;0.90;;;10.70;99.90;;;;;;5027606;28;20049;-81
2023/12/13 06:23:39;;;;;;;3.75;1.30;;;10.70;99.90;;;;;;5027621;28;20030;-80
2023/12/13 06:26:05;;;;;;;3.53;0.73;;;10.70;99.90;;;;;;5036160;28;20027;-80
2023/12/13 06:28:32;;;;;;;4.45;0.60;;;10.70;99.90;;;;;;5028498;28;20556;-80
2023/12/13 06:30:59;;;;;;;4.20;1.10;;;10.70;99.90;;;;;;5023832;28;20046;-80
2023/12/13 06:33:26;;;;;;;2.90;0.70;;;10.70;99.90;;;;;;5027868;28;20042;-79
2023/12/13 06:35:53;;;;;;;2.83;0.65;;;10.70;99.90;;;;;;5023390;28;20093;-81
2023/12/13 06:38:20;;;;;;;4.47;0.75;;;10.70;99.90;;;;;;5029523;28;20076;-81
2023/12/13 06:40:47;;;;;;;2.30;0.73;;;10.70;99.90;;;;;;5028342;28;20084;-82
2023/12/13 06:43:14;;;;;;;3.17;1.00;;;10.70;99.90;;;;;;5029625;28;20046;-79
2023/12/13 06:45:41;;;;;;;3.47;0.68;;;10.70;99.90;;;;;;5027557;28;20046;-80
2023/12/13 06:48:08;;;;;;;1.67;0.88;;;10.70;99.90;;;;;;5027457;28;20041;-80
2023/12/13 06:50:36;;;;;;;3.42;0.80;;;10.80;99.90;;;;;;5027809;28;20046;-80
2023/12/13 06:53:03;;;;;;;2.55;0.90;;;10.80;99.90;;;;;;5044297;28;20492;-80
2023/12/13 06:55:30;;;;;;;4.88;0.63;;;10.70;99.90;;;;;;5028129;28;20042;-78
2023/12/13 06:57:57;;;;;;;1.90;0.50;;;10.80;99.90;;;;;;5025692;28;20077;-81
2023/12/13 07:00:27;;;;;;;1.35;0.70;;;10.70;99.90;;;;;;5026680;28;20096;-80
2023/12/13 07:02:54;;;;;;;4.05;1.25;;;10.70;99.90;;;;;;5030228;28;20074;-80
2023/12/13 07:05:21;;;;;;;2.22;1.00;;;10.70;99.90;;;;;;5028089;28;20108;-79
2023/12/13 07:07:48;;;;;;;2.80;0.90;;;10.70;99.90;;;;;;5024518;28;20052;-80
2023/12/13 07:10:15;;;;;;;3.35;1.05;;;10.70;99.90;;;;;;5026924;28;20125;-83
2023/12/13 07:12:43;;;;;;;7.00;0.80;;;10.70;99.90;;;;;;5024909;28;20049;-81
2023/12/13 07:15:10;;;;;;;3.22;1.00;;;10.70;99.90;;;;;;5033483;28;20042;-82
2023/12/13 07:17:38;;;;;;;3.50;0.75;;;10.60;99.90;;;;;;5028570;28;20505;-82
2023/12/13 07:20:06;;;;;;;3.00;0.60;;;10.60;99.90;;;;;;5026339;28;20092;-82
2023/12/13 07:22:34;;;;;;;1.88;0.63;;;10.60;99.90;;;;;;5028369;28;20061;-81
2023/12/13 07:25:01;;;;;;;5.57;1.08;;;10.70;99.90;;;;;;5023033;28;20051;-80
2023/12/13 07:27:27;;;;;;;4.93;0.90;;;10.70;99.90;;;;;;5027477;28;20073;-80
2023/12/13 07:29:54;;;;;;;2.85;0.70;;;10.70;99.90;;;;;;5022137;28;20073;-80
2023/12/13 07:32:21;;;;;;;1.38;0.70;;;10.70;99.90;;;;;;5028693;28;20046;-81
2023/12/13 07:34:48;;;;;;;0.80;0.68;;;10.70;99.90;;;;;;5019526;28;20050;-80
2023/12/13 07:37:16;;;;;;;3.65;0.80;;;10.70;99.90;;;;;;5026809;28;20428;-80
2023/12/13 07:39:42;;;;;;;2.30;0.52;;;10.80;99.90;;;;;;5025507;28;20109;-81
2023/12/13 07:42:09;;;;;;;2.33;0.70;;;10.80;99.90;;;;;;5030167;28;20045;-79
2023/12/13 07:44:36;;;;;;;2.35;0.88;;;10.80;99.90;;;;;;5022352;28;20041;-79
2023/12/13 07:47:03;;;;;;;3.05;1.00;;;10.70;99.90;;;;;;5029312;28;20050;-83
2023/12/13 07:49:30;;;;;;;2.85;0.80;;;10.70;99.90;;;;;;5027999;28;20041;-80
2023/12/13 07:51:57;;;;;;;1.90;0.85;;;10.70;99.90;;;;;;5024549;28;20050;-81
2023/12/13 07:54:23;;;;;;;1.30;0.52;;;10.60;99.90;;;;;;5024264;28;20042;-80
2023/12/13 07:56:52;;;;;;;1.17;0.52;;;10.60;99.90;;;;;;5027551;28;20053;-81
2023/12/13 07:59:19;;;;;;;2.05;0.70;;;10.50;99.90;;;;;;5025000;28;20551;-79
2023/12/13 08:01:47;;;;;;;1.65;0.60;;;10.50;99.90;;;;;;5018780;28;20046;-81
2023/12/13 08:04:14;;;;;;;1.55;0.47;;;10.40;99.90;;;;;;5027235;28;20034;-80
2023/12/13 08:06:41;;;;;;;2.28;0.75;;;10.40;99.90;;;;;;5026148;28;20061;-81
2023/12/13 08:09:10;;;;;;;1.48;0.60;;;10.40;99.90;;;;;;5028756;28;20068;-81
2023/12/13 08:11:38;;;;;;;3.40;0.63;;;10.30;99.90;;;;;;5023311;28;20048;-81
2023/12/13 08:14:05;;;;;;;3.35;0.70;;;10.30;99.90;;;;;;5027180;28;20053;-81
2023/12/13 08:16:32;;;;;;;1.83;0.60;;;10.30;99.90;;;;;;5024420;28;20064;-80
2023/12/13 08:18:59;;;;;;;1.45;0.60;;;10.40;99.90;;;;;;5023113;28;20050;-80
2023/12/13 08:21:26;;;;;;;2.10;0.60;;;10.30;99.90;;;;;;5029502;28;20054;-80
2023/12/13 08:23:52;;;;;;;0.75;0.40;;;10.40;99.90;;;;;;5028372;28;20049;-81
2023/12/13 08:26:20;;;;;;;3.70;0.63;;;10.30;99.90;;;;;;5028074;28;20061;-80
2023/12/13 08:28:47;;;;;;;2.13;0.68;;;10.40;99.90;;;;;;5021803;28;20038;-81
2023/12/13 08:31:21;;;;;;;2.25;0.50;;;10.30;99.90;;;;;;5027587;28;20053;-80
2023/12/13 08:33:53;;;;;;;0.60;0.60;;;10.30;99.90;;;;;;5020492;28;20106;-81
2023/12/13 08:36:22;;;;;;;1.73;0.50;;;10.30;99.90;;;;;;5026187;28;20050;-79
2023/12/13 08:38:50;;;;;;;;;;;10.40;99.90;;;;;;5029370;28;20082;-81
2023/12/13 08:41:17;;;;;;;4.18;0.80;;;10.30;99.90;;;;;;5032812;28;19922;-81
2023/12/13 08:43:44;;;;;;;0.63;0.50;;;10.40;99.90;;;;;;5035762;28;20064;-81
2023/12/13 08:46:11;;;;;;;1.95;0.60;;;10.40;99.90;;;;;;5034159;28;20157;-80
2023/12/13 08:48:38;;;;;;;1.40;0.50;;;10.40;99.90;;;;;;5036205;28;20026;-80
2023/12/13 08:51:05;;;;;;;3.70;0.47;;;10.40;99.90;;;;;;5025077;28;20073;-80
2023/12/13 08:53:32;;;;;;;1.45;0.50;;;10.40;99.90;;;;;;5027704;28;20046;-80
2023/12/13 08:55:59;;;;;;;2.45;0.50;;;10.40;99.90;;;;;;5031488;28;20069;-82
2023/12/13 08:58:30;;;;;;;0.90;0.52;;;10.40;99.90;;;;;;5036276;28;20060;-81
2023/12/13 09:00:57;;;;;;;0.90;0.43;;;10.40;99.90;;;;;;5035211;28;20057;-80
2023/12/13 09:03:25;;;;;;;2.55;1.00;;;10.40;99.90;;;;;;5031999;28;20056;-80
2023/12/13 09:05:53;;;;;;;0.82;0.63;;;10.40;99.90;;;;;;5027747;28;20058;-81
2023/12/13 09:08:19;;;;;;;2.13;0.65;;;10.50;99.90;;;;;;5036321;28;20042;-80
2023/12/13 09:10:46;;;;;;;1.98;0.50;;;10.50;99.90;;;;;;5029867;28;20073;-81
2023/12/13 09:13:13;;;;;;;0.52;0.50;;;10.50;99.90;;;;;;5030565;28;20060;-80
2023/12/13 09:15:42;;;;;;;0.57;0.30;;;10.60;99.90;;;;;;5032842;28;20576;-82
2023/12/13 09:18:09;;;;;;;1.95;0.40;;;10.60;99.90;;;;;;5033788;28;20054;-80
2023/12/13 09:20:36;;;;;;;3.50;0.40;;;10.60;99.90;;;;;;5035108;28;20042;-80
2023/12/13 09:23:04;;;;;;;0.73;0.40;;;10.70;99.90;;;;;;5024694;28;20569;-80
2023/12/13 09:25:31;;;;;;;2.10;0.85;;;10.70;99.90;;;;;;5032345;28;20076;-80
2023/12/13 09:27:59;;;;;;;0.70;0.40;;;10.80;99.90;;;;;;5032135;28;20077;-82
2023/12/13 09:30:26;;;;;;;5.13;0.60;;;10.80;99.90;;;;;;5028889;28;20046;-81
2023/12/13 09:32:52;;;;;;;2.55;0.40;;;10.80;99.90;;;;;;5025240;28;20050;-83
2023/12/13 09:35:19;;;;;;;0.57;0.40;;;10.80;99.90;;;;;;5026711;28;20502;-81
2023/12/13 09:37:46;;;;;;;4.60;0.50;;;10.70;99.90;;;;;;5026913;28;20038;-80
2023/12/13 09:40:18;;;;;;;1.88;0.40;;;10.70;99.90;;;;;;5031661;28;20037;-82
2023/12/13 09:42:46;;;;;;;1.00;0.47;;;10.60;99.90;;;;;;5037933;28;20034;-82
2023/12/13 09:45:20;;;;;;;1.80;0.60;;;10.60;99.90;;;;;;5035872;28;20072;-80
2023/12/13 09:47:51;;;;;;;4.18;0.70;;;10.60;99.90;;;;;;5027957;28;20069;-82
2023/12/13 09:50:19;;;;;;;2.40;0.60;;;10.60;99.90;;;;;;5033453;28;20029;-81
2023/12/13 09:52:47;;;;;;;0.40;0.40;;;10.70;99.90;;;;;;5026397;28;20053;-81
2023/12/13 09:55:15;;;;;;;2.70;0.60;;;10.60;99.90;;;;;;5027000;28;20060;-82
2023/12/13 09:57:43;;;;;;;1.05;0.40;;;10.60;99.90;;;;;;5029971;28;20046;-82
2023/12/13 10:00:12;;;;;;;1.80;0.50;;;10.60;99.90;;;;;;5030654;28;20046;-82
2023/12/13 10:02:39;;;;;;;3.20;1.40;;;10.60;99.90;;;;;;5031847;28;20046;-81
2023/12/13 10:05:09;;;;;;;4.25;3.38;;;10.70;99.90;;;;;;5029084;28;20345;-78
2023/12/13 10:07:38;;;;;;;5.57;3.40;;;10.70;99.90;;;;;;5031795;28;20050;-79
2023/12/13 10:10:05;;;;;;;3.40;3.00;;;10.80;99.90;;;;;;5036371;28;20030;-81
2023/12/13 10:12:32;;;;;;;1.23;0.85;;;10.80;99.90;;;;;;5034580;28;20065;-81
2023/12/13 10:15:11;;;;;;;1.25;0.60;;;10.80;99.90;;;;;;5030958;28;20034;-81
2023/12/13 10:17:39;;;;;;;1.45;0.85;;;10.80;99.90;;;;;;5029476;28;20041;-83
2023/12/13 10:20:08;;;;;;;0.85;0.60;;;10.80;99.90;;;;;;5030319;28;20066;-81
2023/12/13 10:22:36;;;;;;;2.35;0.50;;;10.80;99.90;;;;;;5036342;28;20049;-82
2023/12/13 10:25:04;;;;;;;4.47;0.55;;;10.80;99.90;;;;;;5029453;28;20077;-83
2023/12/13 10:27:31;;;;;;;0.95;0.50;;;10.80;99.90;;;;;;5031442;28;20076;-81
2023/12/13 10:29:59;;;;;;;1.25;0.40;;;10.90;99.90;;;;;;5024721;28;20045;-81
2023/12/13 10:32:26;;;;;;;1.95;0.50;;;10.90;99.90;;;;;;5027265;28;20092;-79
2023/12/13 10:34:54;;;;;;;1.92;0.70;;;10.90;99.90;;;;;;5029689;28;20038;-84
2023/12/13 10:37:24;;;;;;;0.90;0.50;;;10.90;99.90;;;;;;5028106;28;20042;-81
2023/12/13 10:39:55;;;;;;;2.70;0.50;;;11.00;99.90;;;;;;5030765;28;20057;-81
2023/12/13 10:42:24;;;;;;;2.90;0.52;;;11.00;99.90;;;;;;5029168;28;20042;-81
2023/12/13 10:44:52;;;;;;;1.10;0.43;;;11.10;99.90;;;;;;5028809;28;20046;-80
2023/12/13 10:47:25;;;;;;;2.55;0.50;;;11.10;99.90;;;;;;5029861;28;20072;-83
2023/12/13 10:49:54;;;;;;;0.80;0.47;;;11.20;99.90;;;;;;5036441;28;20046;-80
2023/12/13 10:52:24;;;;;;;1.73;0.60;;;11.20;99.90;;;;;;5028685;28;20101;-81
2023/12/13 10:54:52;;;;;;;1.35;0.50;;;11.20;99.90;;;;;;5027416;28;20049;-80
2023/12/13 10:57:19;;;;;;;0.82;0.35;;;11.20;99.90;;;;;;5030037;28;20038;-81
2023/12/13 10:59:46;;;;;;;0.77;0.40;;;11.20;99.90;;;;;;5020371;28;20041;-80
2023/12/13 11:02:16;;;;;;;1.60;0.60;;;11.20;99.90;;;;;;5025739;28;20090;-80
2023/12/13 11:04:43;;;;;;;1.27;0.30;;;11.10;99.90;;;;;;5022962;28;20046;-80
2023/12/13 11:07:11;;;;;;;1.50;0.50;;;11.10;99.90;;;;;;5027593;28;20042;-78
2023/12/13 11:09:52;;;;;;;1.92;0.50;;;11.10;99.90;;;;;;5024094;28;20046;-79
2023/12/13 11:12:18;;;;;;;2.53;0.60;;;11.10;99.90;;;;;;5032398;28;20050;-80
2023/12/13 11:14:52;;;;;;;1.95;0.50;;;11.20;99.90;;;;;;5027238;28;20037;-79
2023/12/13 11:17:21;;;;;;;1.88;0.52;;;11.20;99.90;;;;;;5030611;28;20046;-80
2023/12/13 11:19:50;;;;;;;;;;;11.20;99.90;;;;;;5028946;28;20072;-80
2023/12/13 11:22:22;;;;;;;2.20;0.50;;;11.20;99.90;;;;;;5043175;28;19921;-80
2023/12/13 11:25:06;;;;;;;1.83;0.60;;;11.20;99.90;;;;;;5025073;28;20414;-79
2023/12/13 11:27:33;;;;;;;2.28;0.70;;;11.20;99.90;;;;;;5008708;28;20540;-77
2023/12/13 11:30:13;;;;;;;1.08;0.50;;;11.30;99.90;;;;;;5013885;28;20312;-77
2023/12/13 11:32:47;;;;;;;;;;;11.30;99.90;;;;;;5015112;28;20046;-76
2023/12/13 11:35:17;;;;;;;2.70;0.60;;;11.40;99.90;;;;;;5009601;28;19957;-78
2023/12/13 11:38:03;;;;;;;2.95;0.93;;;11.40;99.90;;;;;;5005846;28;20092;-77
2023/12/13 11:40:30;;;;;;;1.45;0.65;;;11.40;99.90;;;;;;5009117;28;20041;-75
2023/12/13 11:42:57;;;;;;;4.30;0.60;;;11.40;99.90;;;;;;5009127;28;20056;-75
2023/12/13 11:45:23;;;;;;;1.77;1.10;;;11.40;99.90;;;;;;5009069;28;20090;-77
2023/12/13 11:47:50;;;;;;;2.40;1.05;;;11.50;99.90;;;;;;5013124;28;20050;-78
2023/12/13 11:50:19;;;;;;;1.02;0.90;;;11.50;99.90;;;;;;5007015;28;20049;-78
2023/12/13 11:52:47;;;;;;;1.55;0.90;;;11.40;99.90;;;;;;5013879;28;20053;-78
2023/12/13 11:55:16;;;;;;;1.55;0.80;;;11.50;99.90;;;;;;5007966;28;20045;-77
2023/12/13 11:57:48;;;;;;;1.35;0.60;;;11.50;99.90;;;;;;5011247;28;20042;-76
2023/12/13 12:00:18;;;;;;;4.30;0.70;;;11.50;99.90;;;;;;5010066;28;20096;-76
2023/12/13 12:02:45;;;;;;;1.98;0.68;;;11.50;99.90;;;;;;5011868;28;20096;-77
2023/12/13 12:05:13;;;;;;;2.10;0.73;;;11.50;99.90;;;;;;5011521;28;20128;-77
2023/12/13 12:07:39;;;;;;;4.35;0.70;;;11.50;99.90;;;;;;5013166;28;20046;-76
2023/12/13 12:10:07;;;;;;;2.15;0.50;;;11.50;99.90;;;;;;5006679;28;20046;-77
2023/12/13 12:12:36;;;;;;;2.30;0.98;;;11.40;99.90;;;;;;5009887;28;20038;-76
2023/12/13 12:15:07;;;;;;;5.10;1.40;;;11.40;99.90;;;;;;5009402;28;20112;-78
2023/12/13 12:17:33;;;;;;;2.00;1.08;;;11.40;99.90;;;;;;5015545;28;20085;-78
2023/12/13 12:20:03;;;;;;;3.30;0.93;;;11.40;99.90;;;;;;5012126;28;20103;-78
2023/12/13 12:22:33;;;;;;;4.53;0.80;;;11.40;99.90;;;;;;5016751;28;20057;-78
2023/12/13 12:25:00;;;;;;;1.58;0.85;;;11.40;99.90;;;;;;5016926;28;20057;-78
2023/12/13 12:27:27;;;;;;;1.95;0.70;;;11.40;99.90;;;;;;5016845;28;20074;-78
2023/12/13 12:29:54;;;;;;;3.70;0.90;;;11.40;99.90;;;;;;5015649;28;20050;-76
2023/12/13 12:32:21;;;;;;;3.15;0.75;;;11.40;99.90;;;;;;5015608;28;20093;-77
2023/12/13 12:34:48;;;;;;;4.35;0.90;;;11.40;99.90;;;;;;5017448;28;20046;-78
2023/12/13 12:37:16;;;;;;;2.13;0.80;;;11.50;99.90;;;;;;5010107;28;20134;-78
2023/12/13 12:39:43;;;;;;;2.70;1.10;;;11.50;99.90;;;;;;5016452;28;20048;-79
2023/12/13 12:42:10;;;;;;;2.83;1.10;;;11.50;99.90;;;;;;5011498;28;20112;-78
2023/12/13 12:44:37;;;;;;;3.35;1.02;;;11.50;99.90;;;;;;5015075;28;20524;-78
2023/12/13 12:47:03;;;;;;;3.08;1.20;;;11.40;99.90;;;;;;5008057;28;20409;-78
2023/12/13 12:49:30;;;;;;;4.75;1.90;;;11.40;99.90;;;;;;5009637;28;20042;-78